sensor_id;sensor_type;location;lat;lon;timestamp;pressure;altitude;pressure_sealevel;temperature;humidity
64211;BME280;50528;48.514;14.394;2023-04-01T00:00:00;92506.09;;;7.16;80.94
64211;BME280;50528;48.514;14.394;2023-04-01T00:01:05;92505.20;;;7.10;80.97
64211;BME280;50528;48.514;14.394;2023-04-01T00:01:39;92513.89;;;7.12;80.96
64211;BME280;50528;48.514;14.394;2023-04-01T00:02:12;92503.61;;;7.07;80.90
64211;BME280;50528;48.514;14.394;2023-04-01T00:02:46;92513.13;;;7.05;81.07
64211;BME280;50528;48.514;14.394;2023-04-01T00:03:25;92510.38;;;7.15;80.89
64211;BME280;50528;48.514;14.394;2023-04-01T00:04:00;92510.96;;;7.16;80.67
64211;BME280;50528;48.514;14.394;2023-04-01T00:04:35;92506.56;;;7.13;80.71
64211;BME280;50528;48.514;14.394;2023-04-01T00:05:10;92512.98;;;7.06;81.00
64211;BME280;50528;48.514;14.394;2023-04-01T00:05:45;92517.84;;;7.08;81.07
64211;BME280;50528;48.514;14.394;2023-04-01T00:06:19;92517.14;;;7.22;80.58
64211;BME280;50528;48.514;14.394;2023-04-01T00:06:53;92508.77;;;7.20;80.17
64211;BME280;50528;48.514;14.394;2023-04-01T00:07:26;92513.98;;;7.10;80.55
64211;BME280;50528;48.514;14.394;2023-04-01T00:08:03;92512.66;;;7.09;80.61
64211;BME280;50528;48.514;14.394;2023-04-01T00:08:36;92512.77;;;7.13;80.62
64211;BME280;50528;48.514;14.394;2023-04-01T00:09:10;92511.20;;;7.10;80.56
64211;BME280;50528;48.514;14.394;2023-04-01T00:09:44;92506.92;;;7.11;80.68
64211;BME280;50528;48.514;14.394;2023-04-01T00:10:18;92510.17;;;7.14;80.65
64211;BME280;50528;48.514;14.394;2023-04-01T00:10:52;92509.17;;;7.16;80.44
64211;BME280;50528;48.514;14.394;2023-04-01T00:11:26;92511.88;;;7.06;80.61
64211;BME280;50528;48.514;14.394;2023-04-01T00:12:00;92510.66;;;7.03;80.99
64211;BME280;50528;48.514;14.394;2023-04-01T00:12:34;92511.55;;;7.06;80.94
64211;BME280;50528;48.514;14.394;2023-04-01T00:13:08;92511.83;;;7.05;80.97
64211;BME280;50528;48.514;14.394;2023-04-01T00:13:43;92512.70;;;7.03;81.04
64211;BME280;50528;48.514;14.394;2023-04-01T00:14:21;92514.95;;;7.07;81.02
64211;BME280;50528;48.514;14.394;2023-04-01T00:14:56;92518.60;;;7.01;81.17
64211;BME280;50528;48.514;14.394;2023-04-01T00:15:30;92514.38;;;6.99;81.23
64211;BME280;50528;48.514;14.394;2023-04-01T00:16:05;92517.98;;;6.98;81.35
64211;BME280;50528;48.514;14.394;2023-04-01T00:16:52;92518.16;;;6.97;81.38
64211;BME280;50528;48.514;14.394;2023-04-01T00:17:26;92513.52;;;6.97;81.49
64211;BME280;50528;48.514;14.394;2023-04-01T00:18:00;92516.87;;;6.99;81.51
64211;BME280;50528;48.514;14.394;2023-04-01T00:18:34;92520.12;;;7.01;81.52
64211;BME280;50528;48.514;14.394;2023-04-01T00:19:08;92515.98;;;7.02;81.45
64211;BME280;50528;48.514;14.394;2023-04-01T00:19:41;92517.48;;;7.06;81.45
64211;BME280;50528;48.514;14.394;2023-04-01T00:20:15;92522.13;;;7.06;81.42
64211;BME280;50528;48.514;14.394;2023-04-01T00:20:51;92520.77;;;7.06;81.47
64211;BME280;50528;48.514;14.394;2023-04-01T00:21:25;92519.15;;;7.06;81.45
64211;BME280;50528;48.514;14.394;2023-04-01T00:21:59;92519.51;;;7.08;81.43
64211;BME280;50528;48.514;14.394;2023-04-01T00:22:33;92521.44;;;7.10;81.42
64211;BME280;50528;48.514;14.394;2023-04-01T00:23:10;92524.28;;;7.12;81.34
64211;BME280;50528;48.514;14.394;2023-04-01T00:23:44;92520.84;;;7.13;81.34
64211;BME280;50528;48.514;14.394;2023-04-01T00:24:17;92519.06;;;7.12;81.28
64211;BME280;50528;48.514;14.394;2023-04-01T00:24:51;92520.79;;;7.12;81.27
64211;BME280;50528;48.514;14.394;2023-04-01T00:25:25;92516.55;;;7.11;81.34
64211;BME280;50528;48.514;14.394;2023-04-01T00:26:00;92513.24;;;7.13;81.23
64211;BME280;50528;48.514;14.394;2023-04-01T00:26:35;92515.35;;;7.12;81.31
64211;BME280;50528;48.514;14.394;2023-04-01T00:27:10;92522.39;;;7.13;81.35
64211;BME280;50528;48.514;14.394;2023-04-01T00:27:44;92518.59;;;7.17;81.26
64211;BME280;50528;48.514;14.394;2023-04-01T00:28:19;92523.52;;;7.24;81.00
64211;BME280;50528;48.514;14.394;2023-04-01T00:28:53;92517.96;;;7.19;80.92
64211;BME280;50528;48.514;14.394;2023-04-01T00:29:26;92521.98;;;7.19;80.95
64211;BME280;50528;48.514;14.394;2023-04-01T00:30:04;92525.64;;;7.19;80.83
64211;BME280;50528;48.514;14.394;2023-04-01T00:30:38;92523.92;;;7.17;80.90
64211;BME280;50528;48.514;14.394;2023-04-01T00:31:14;92523.10;;;7.22;80.70
64211;BME280;50528;48.514;14.394;2023-04-01T00:31:48;92519.07;;;7.21;80.49
64211;BME280;50528;48.514;14.394;2023-04-01T00:32:22;92522.45;;;7.18;80.53
64211;BME280;50528;48.514;14.394;2023-04-01T00:32:56;92525.59;;;7.19;80.59
64211;BME280;50528;48.514;14.394;2023-04-01T00:33:30;92526.69;;;7.16;80.57
64211;BME280;50528;48.514;14.394;2023-04-01T00:34:04;92528.11;;;7.17;80.60
64211;BME280;50528;48.514;14.394;2023-04-01T00:34:38;92529.66;;;7.14;80.64
64211;BME280;50528;48.514;14.394;2023-04-01T00:35:13;92528.45;;;7.14;80.78
64211;BME280;50528;48.514;14.394;2023-04-01T00:35:46;92523.71;;;7.17;80.69
64211;BME280;50528;48.514;14.394;2023-04-01T00:36:21;92519.21;;;7.19;80.55
64211;BME280;50528;48.514;14.394;2023-04-01T00:36:55;92526.38;;;7.21;80.60
64211;BME280;50528;48.514;14.394;2023-04-01T00:37:28;92533.29;;;7.21;80.51
64211;BME280;50528;48.514;14.394;2023-04-01T00:38:03;92530.19;;;7.20;80.48
64211;BME280;50528;48.514;14.394;2023-04-01T00:38:38;92526.55;;;7.18;80.50
64211;BME280;50528;48.514;14.394;2023-04-01T00:39:12;92534.44;;;7.17;80.53
64211;BME280;50528;48.514;14.394;2023-04-01T00:39:45;92534.69;;;7.19;80.47
64211;BME280;50528;48.514;14.394;2023-04-01T00:40:28;92533.48;;;7.19;80.34
64211;BME280;50528;48.514;14.394;2023-04-01T00:41:03;92530.45;;;7.18;80.32
64211;BME280;50528;48.514;14.394;2023-04-01T00:41:37;92533.85;;;7.18;80.38
64211;BME280;50528;48.514;14.394;2023-04-01T00:42:11;92535.58;;;7.17;80.43
64211;BME280;50528;48.514;14.394;2023-04-01T00:42:45;92534.85;;;7.23;80.23
64211;BME280;50528;48.514;14.394;2023-04-01T00:43:20;92542.28;;;7.25;79.92
64211;BME280;50528;48.514;14.394;2023-04-01T00:44:15;92538.35;;;7.21;79.97
64211;BME280;50528;48.514;14.394;2023-04-01T00:44:51;92540.37;;;7.13;80.25
64211;BME280;50528;48.514;14.394;2023-04-01T00:45:33;92534.52;;;7.11;80.39
64211;BME280;50528;48.514;14.394;2023-04-01T00:46:07;92538.86;;;7.13;80.46
64211;BME280;50528;48.514;14.394;2023-04-01T00:46:41;92537.65;;;7.14;80.48
64211;BME280;50528;48.514;14.394;2023-04-01T00:47:15;92542.79;;;7.17;80.39
64211;BME280;50528;48.514;14.394;2023-04-01T00:47:49;92542.31;;;7.21;80.08
64211;BME280;50528;48.514;14.394;2023-04-01T00:48:27;92544.67;;;7.18;80.08
64211;BME280;50528;48.514;14.394;2023-04-01T00:49:02;92538.85;;;7.18;79.86
64211;BME280;50528;48.514;14.394;2023-04-01T00:49:39;92540.17;;;7.19;79.98
64211;BME280;50528;48.514;14.394;2023-04-01T00:50:14;92545.04;;;7.20;79.85
64211;BME280;50528;48.514;14.394;2023-04-01T00:50:51;92541.89;;;7.16;79.88
64211;BME280;50528;48.514;14.394;2023-04-01T00:51:27;92542.36;;;7.15;80.00
64211;BME280;50528;48.514;14.394;2023-04-01T00:52:04;92540.49;;;7.18;80.04
64211;BME280;50528;48.514;14.394;2023-04-01T00:52:39;92540.28;;;7.18;79.87
64211;BME280;50528;48.514;14.394;2023-04-01T00:53:13;92540.83;;;7.14;80.10
64211;BME280;50528;48.514;14.394;2023-04-01T00:53:50;92543.88;;;7.13;80.15
64211;BME280;50528;48.514;14.394;2023-04-01T00:54:25;92540.53;;;7.13;80.21
64211;BME280;50528;48.514;14.394;2023-04-01T00:55:03;92544.39;;;7.13;80.24
64211;BME280;50528;48.514;14.394;2023-04-01T00:55:42;92542.21;;;7.17;80.21
64211;BME280;50528;48.514;14.394;2023-04-01T00:56:22;92543.41;;;7.15;80.08
64211;BME280;50528;48.514;14.394;2023-04-01T00:57:02;92547.42;;;7.15;80.02
64211;BME280;50528;48.514;14.394;2023-04-01T00:57:37;92540.05;;;7.12;80.16
64211;BME280;50528;48.514;14.394;2023-04-01T00:58:16;92544.71;;;7.15;80.09
64211;BME280;50528;48.514;14.394;2023-04-01T00:58:54;92541.00;;;7.14;80.25
64211;BME280;50528;48.514;14.394;2023-04-01T00:59:37;92544.88;;;7.16;79.96
64211;BME280;50528;48.514;14.394;2023-04-01T01:00:12;92544.34;;;7.12;80.12
64211;BME280;50528;48.514;14.394;2023-04-01T01:00:48;92545.75;;;7.11;80.05
64211;BME280;50528;48.514;14.394;2023-04-01T01:01:24;92544.13;;;7.11;80.06
64211;BME280;50528;48.514;14.394;2023-04-01T01:02:01;92541.21;;;7.12;80.13
64211;BME280;50528;48.514;14.394;2023-04-01T01:02:36;92546.06;;;7.11;80.12
64211;BME280;50528;48.514;14.394;2023-04-01T01:03:10;92546.59;;;7.12;80.06
64211;BME280;50528;48.514;14.394;2023-04-01T01:03:45;92547.78;;;7.10;80.20
64211;BME280;50528;48.514;14.394;2023-04-01T01:04:27;92545.35;;;7.22;79.90
64211;BME280;50528;48.514;14.394;2023-04-01T01:05:01;92545.61;;;7.21;79.64
64211;BME280;50528;48.514;14.394;2023-04-01T01:06:47;92547.88;;;7.12;79.97
64211;BME280;50528;48.514;14.394;2023-04-01T01:07:34;92544.75;;;7.10;80.06
64211;BME280;50528;48.514;14.394;2023-04-01T01:08:17;92540.02;;;7.04;80.23
64211;BME280;50528;48.514;14.394;2023-04-01T01:10:17;92544.98;;;7.03;80.37
64211;BME280;50528;48.514;14.394;2023-04-01T01:10:51;92543.87;;;6.98;80.50
64211;BME280;50528;48.514;14.394;2023-04-01T01:11:57;92540.80;;;6.99;80.50
64211;BME280;50528;48.514;14.394;2023-04-01T01:15:07;92529.59;;;6.94;80.74
64211;BME280;50528;48.514;14.394;2023-04-01T01:16:02;92530.68;;;6.91;80.58
64211;BME280;50528;48.514;14.394;2023-04-01T01:16:44;92531.52;;;6.93;80.36
64211;BME280;50528;48.514;14.394;2023-04-01T01:19:38;92523.35;;;6.85;80.78
64211;BME280;50528;48.514;14.394;2023-04-01T01:27:08;92513.19;;;6.75;81.34
64211;BME280;50528;48.514;14.394;2023-04-01T01:27:49;92513.02;;;6.74;81.34
64211;BME280;50528;48.514;14.394;2023-04-01T01:29:47;92517.48;;;6.83;81.30
64211;BME280;50528;48.514;14.394;2023-04-01T01:30:32;92512.48;;;6.69;81.48
64211;BME280;50528;48.514;14.394;2023-04-01T01:33:35;92511.48;;;6.65;81.91
64211;BME280;50528;48.514;14.394;2023-04-01T01:34:55;92509.42;;;6.67;81.81
64211;BME280;50528;48.514;14.394;2023-04-01T01:35:49;92509.02;;;6.67;81.81
64211;BME280;50528;48.514;14.394;2023-04-01T01:36:27;92505.57;;;6.64;81.85
64211;BME280;50528;48.514;14.394;2023-04-01T01:37:06;92500.86;;;6.63;82.02
64211;BME280;50528;48.514;14.394;2023-04-01T01:37:44;92500.29;;;6.64;81.87
64211;BME280;50528;48.514;14.394;2023-04-01T01:38:23;92498.40;;;6.62;81.87
64211;BME280;50528;48.514;14.394;2023-04-01T01:39:05;92501.21;;;6.62;81.93
64211;BME280;50528;48.514;14.394;2023-04-01T01:39:41;92511.67;;;6.62;82.15
64211;BME280;50528;48.514;14.394;2023-04-01T01:40:16;92499.52;;;6.67;81.86
64211;BME280;50528;48.514;14.394;2023-04-01T01:40:51;92501.45;;;6.68;81.86
64211;BME280;50528;48.514;14.394;2023-04-01T01:41:27;92505.15;;;6.66;81.84
64211;BME280;50528;48.514;14.394;2023-04-01T01:42:07;92503.05;;;6.63;81.84
64211;BME280;50528;48.514;14.394;2023-04-01T01:42:49;92500.80;;;6.62;81.96
64211;BME280;50528;48.514;14.394;2023-04-01T01:43:26;92498.31;;;6.65;81.71
64211;BME280;50528;48.514;14.394;2023-04-01T01:44:04;92503.54;;;6.66;81.85
64211;BME280;50528;48.514;14.394;2023-04-01T01:44:40;92502.34;;;6.65;81.87
64211;BME280;50528;48.514;14.394;2023-04-01T01:45:18;92500.20;;;6.64;81.85
64211;BME280;50528;48.514;14.394;2023-04-01T01:45:59;92506.09;;;6.68;81.58
64211;BME280;50528;48.514;14.394;2023-04-01T01:46:36;92503.48;;;6.66;81.73
64211;BME280;50528;48.514;14.394;2023-04-01T01:47:11;92501.23;;;6.67;81.72
64211;BME280;50528;48.514;14.394;2023-04-01T01:47:48;92504.58;;;6.66;81.80
64211;BME280;50528;48.514;14.394;2023-04-01T01:48:28;92499.46;;;6.67;81.70
64211;BME280;50528;48.514;14.394;2023-04-01T01:50:43;92498.66;;;6.59;81.98
64211;BME280;50528;48.514;14.394;2023-04-01T01:51:20;92499.83;;;6.55;81.92
64211;BME280;50528;48.514;14.394;2023-04-01T01:51:55;92500.58;;;6.56;81.92
64211;BME280;50528;48.514;14.394;2023-04-01T01:52:29;92489.50;;;6.56;81.94
64211;BME280;50528;48.514;14.394;2023-04-01T01:53:08;92496.78;;;6.60;81.89
64211;BME280;50528;48.514;14.394;2023-04-01T01:53:43;92483.73;;;6.60;81.68
64211;BME280;50528;48.514;14.394;2023-04-01T01:54:19;92493.25;;;6.55;81.83
64211;BME280;50528;48.514;14.394;2023-04-01T01:54:55;92492.52;;;6.54;81.91
64211;BME280;50528;48.514;14.394;2023-04-01T01:55:35;92491.81;;;6.56;81.96
64211;BME280;50528;48.514;14.394;2023-04-01T01:56:11;92487.04;;;6.54;81.94
64211;BME280;50528;48.514;14.394;2023-04-01T01:56:53;92495.83;;;6.56;82.13
64211;BME280;50528;48.514;14.394;2023-04-01T01:57:33;92493.95;;;6.58;81.92
64211;BME280;50528;48.514;14.394;2023-04-01T01:58:14;92490.86;;;6.56;82.05
64211;BME280;50528;48.514;14.394;2023-04-01T01:58:56;92491.70;;;6.56;82.18
64211;BME280;50528;48.514;14.394;2023-04-01T01:59:34;92493.90;;;6.58;82.16
64211;BME280;50528;48.514;14.394;2023-04-01T02:00:11;92491.14;;;6.59;82.10
64211;BME280;50528;48.514;14.394;2023-04-01T02:00:52;92492.77;;;6.61;81.95
64211;BME280;50528;48.514;14.394;2023-04-01T02:01:29;92497.37;;;6.64;81.83
64211;BME280;50528;48.514;14.394;2023-04-01T02:02:10;92494.53;;;6.60;81.94
64211;BME280;50528;48.514;14.394;2023-04-01T02:02:46;92492.13;;;6.58;81.99
64211;BME280;50528;48.514;14.394;2023-04-01T02:03:23;92499.21;;;6.57;82.00
64211;BME280;50528;48.514;14.394;2023-04-01T02:03:59;92498.06;;;6.56;82.06
64211;BME280;50528;48.514;14.394;2023-04-01T02:04:35;92489.30;;;6.57;82.15
64211;BME280;50528;48.514;14.394;2023-04-01T02:05:12;92489.73;;;6.63;82.05
64211;BME280;50528;48.514;14.394;2023-04-01T02:05:51;92500.02;;;6.63;82.07
64211;BME280;50528;48.514;14.394;2023-04-01T02:06:28;92502.23;;;6.64;82.01
64211;BME280;50528;48.514;14.394;2023-04-01T02:07:10;92499.40;;;6.67;82.00
64211;BME280;50528;48.514;14.394;2023-04-01T02:07:53;92496.80;;;6.64;82.02
64211;BME280;50528;48.514;14.394;2023-04-01T02:08:39;92504.52;;;6.65;81.96
64211;BME280;50528;48.514;14.394;2023-04-01T02:09:14;92502.52;;;6.63;81.96
64211;BME280;50528;48.514;14.394;2023-04-01T02:09:49;92504.81;;;6.61;82.09
64211;BME280;50528;48.514;14.394;2023-04-01T02:10:25;92504.36;;;6.63;82.14
64211;BME280;50528;48.514;14.394;2023-04-01T02:11:06;92504.10;;;6.64;81.91
64211;BME280;50528;48.514;14.394;2023-04-01T02:11:59;92508.58;;;6.62;82.03
64211;BME280;50528;48.514;14.394;2023-04-01T02:12:38;92500.21;;;6.57;81.90
64211;BME280;50528;48.514;14.394;2023-04-01T02:13:29;92499.89;;;6.57;82.00
64211;BME280;50528;48.514;14.394;2023-04-01T02:14:09;92506.04;;;6.54;82.10
64211;BME280;50528;48.514;14.394;2023-04-01T02:15:07;92507.11;;;6.58;82.21
64211;BME280;50528;48.514;14.394;2023-04-01T02:15:46;92507.65;;;6.50;82.22
64211;BME280;50528;48.514;14.394;2023-04-01T02:16:28;92510.73;;;6.54;82.34
64211;BME280;50528;48.514;14.394;2023-04-01T02:17:09;92509.43;;;6.51;82.18
64211;BME280;50528;48.514;14.394;2023-04-01T02:17:45;92507.42;;;6.48;82.39
64211;BME280;50528;48.514;14.394;2023-04-01T02:18:21;92510.86;;;6.57;82.15
64211;BME280;50528;48.514;14.394;2023-04-01T02:18:56;92509.41;;;6.60;81.87
64211;BME280;50528;48.514;14.394;2023-04-01T02:19:36;92510.27;;;6.52;82.04
64211;BME280;50528;48.514;14.394;2023-04-01T02:20:21;92505.41;;;6.51;82.22
64211;BME280;50528;48.514;14.394;2023-04-01T02:20:58;92514.73;;;6.49;82.36
64211;BME280;50528;48.514;14.394;2023-04-01T02:21:33;92508.88;;;6.46;82.25
64211;BME280;50528;48.514;14.394;2023-04-01T02:22:11;92513.02;;;6.47;82.43
64211;BME280;50528;48.514;14.394;2023-04-01T02:22:54;92513.04;;;6.52;82.16
64211;BME280;50528;48.514;14.394;2023-04-01T02:23:28;92511.52;;;6.53;82.14
64211;BME280;50528;48.514;14.394;2023-04-01T02:24:05;92507.08;;;6.51;82.12
64211;BME280;50528;48.514;14.394;2023-04-01T02:24:40;92508.65;;;6.52;81.94
64211;BME280;50528;48.514;14.394;2023-04-01T02:25:18;92511.22;;;6.56;81.90
64211;BME280;50528;48.514;14.394;2023-04-01T02:25:54;92507.31;;;6.58;81.63
64211;BME280;50528;48.514;14.394;2023-04-01T02:26:27;92500.17;;;6.60;81.35
64211;BME280;50528;48.514;14.394;2023-04-01T02:27:03;92501.67;;;6.59;81.38
64211;BME280;50528;48.514;14.394;2023-04-01T02:27:38;92498.54;;;6.56;81.43
64211;BME280;50528;48.514;14.394;2023-04-01T02:28:13;92493.73;;;6.52;81.62
64211;BME280;50528;48.514;14.394;2023-04-01T02:28:50;92495.80;;;6.51;81.78
64211;BME280;50528;48.514;14.394;2023-04-01T02:29:26;92495.91;;;6.52;81.67
64211;BME280;50528;48.514;14.394;2023-04-01T02:30:00;92483.66;;;6.45;81.75
64211;BME280;50528;48.514;14.394;2023-04-01T02:30:36;92492.84;;;6.52;81.75
64211;BME280;50528;48.514;14.394;2023-04-01T02:31:12;92491.24;;;6.59;81.56
64211;BME280;50528;48.514;14.394;2023-04-01T02:31:49;92491.02;;;6.57;81.56
64211;BME280;50528;48.514;14.394;2023-04-01T02:32:24;92490.30;;;6.58;81.55
64211;BME280;50528;48.514;14.394;2023-04-01T02:32:59;92486.94;;;6.54;81.51
64211;BME280;50528;48.514;14.394;2023-04-01T02:33:38;92489.98;;;6.57;81.56
64211;BME280;50528;48.514;14.394;2023-04-01T02:34:13;92488.94;;;6.61;81.38
64211;BME280;50528;48.514;14.394;2023-04-01T02:34:47;92488.23;;;6.62;81.37
64211;BME280;50528;48.514;14.394;2023-04-01T02:35:21;92489.64;;;6.66;81.24
64211;BME280;50528;48.514;14.394;2023-04-01T02:35:55;92490.79;;;6.77;80.61
64211;BME280;50528;48.514;14.394;2023-04-01T02:36:31;92486.47;;;6.82;80.23
64211;BME280;50528;48.514;14.394;2023-04-01T02:37:05;92491.64;;;6.82;79.95
64211;BME280;50528;48.514;14.394;2023-04-01T02:37:40;92496.79;;;6.76;80.13
64211;BME280;50528;48.514;14.394;2023-04-01T02:38:15;92492.46;;;6.77;80.20
64211;BME280;50528;48.514;14.394;2023-04-01T02:38:49;92488.42;;;6.73;79.90
64211;BME280;50528;48.514;14.394;2023-04-01T02:39:24;92494.89;;;6.71;80.10
64211;BME280;50528;48.514;14.394;2023-04-01T02:40:04;92499.15;;;6.66;80.26
64211;BME280;50528;48.514;14.394;2023-04-01T02:40:50;92502.90;;;6.63;80.58
64211;BME280;50528;48.514;14.394;2023-04-01T02:41:24;92510.24;;;6.61;80.76
64211;BME280;50528;48.514;14.394;2023-04-01T02:41:58;92499.45;;;6.64;80.83
64211;BME280;50528;48.514;14.394;2023-04-01T02:42:31;92502.69;;;6.67;80.74
64211;BME280;50528;48.514;14.394;2023-04-01T02:43:05;92505.41;;;6.64;80.72
64211;BME280;50528;48.514;14.394;2023-04-01T02:43:39;92507.32;;;6.61;80.92
64211;BME280;50528;48.514;14.394;2023-04-01T02:44:14;92509.56;;;6.62;80.99
64211;BME280;50528;48.514;14.394;2023-04-01T02:44:48;92512.47;;;6.67;81.04
64211;BME280;50528;48.514;14.394;2023-04-01T02:45:22;92512.95;;;6.70;80.54
64211;BME280;50528;48.514;14.394;2023-04-01T02:45:55;92508.35;;;6.68;80.52
64211;BME280;50528;48.514;14.394;2023-04-01T02:46:29;92513.09;;;6.65;80.73
64211;BME280;50528;48.514;14.394;2023-04-01T02:47:03;92514.71;;;6.64;80.80
64211;BME280;50528;48.514;14.394;2023-04-01T02:47:37;92517.11;;;6.65;80.79
64211;BME280;50528;48.514;14.394;2023-04-01T02:48:11;92515.02;;;6.65;80.77
64211;BME280;50528;48.514;14.394;2023-04-01T02:48:53;92518.84;;;6.68;80.80
64211;BME280;50528;48.514;14.394;2023-04-01T02:49:27;92518.20;;;6.67;80.74
64211;BME280;50528;48.514;14.394;2023-04-01T02:50:00;92521.13;;;6.67;80.88
64211;BME280;50528;48.514;14.394;2023-04-01T02:50:34;92520.67;;;6.72;80.89
64211;BME280;50528;48.514;14.394;2023-04-01T02:51:08;92517.17;;;6.68;80.95
64211;BME280;50528;48.514;14.394;2023-04-01T02:51:42;92519.08;;;6.66;80.97
64211;BME280;50528;48.514;14.394;2023-04-01T02:52:16;92526.52;;;6.66;81.12
64211;BME280;50528;48.514;14.394;2023-04-01T02:52:49;92522.37;;;6.64;81.15
64211;BME280;50528;48.514;14.394;2023-04-01T02:53:23;92524.63;;;6.66;81.42
64211;BME280;50528;48.514;14.394;2023-04-01T02:53:57;92520.27;;;6.73;81.17
64211;BME280;50528;48.514;14.394;2023-04-01T02:54:32;92525.76;;;6.74;80.99
64211;BME280;50528;48.514;14.394;2023-04-01T02:55:06;92528.83;;;6.73;81.03
64211;BME280;50528;48.514;14.394;2023-04-01T02:55:39;92527.69;;;6.74;80.92
64211;BME280;50528;48.514;14.394;2023-04-01T02:56:13;92524.07;;;6.73;80.84
64211;BME280;50528;48.514;14.394;2023-04-01T02:56:47;92526.95;;;6.71;80.97
64211;BME280;50528;48.514;14.394;2023-04-01T02:57:22;92531.70;;;6.73;80.97
64211;BME280;50528;48.514;14.394;2023-04-01T02:57:57;92523.47;;;6.74;80.81
64211;BME280;50528;48.514;14.394;2023-04-01T02:58:31;92520.45;;;6.79;80.74
64211;BME280;50528;48.514;14.394;2023-04-01T02:59:05;92526.73;;;6.81;80.50
64211;BME280;50528;48.514;14.394;2023-04-01T02:59:38;92529.45;;;6.80;80.44
64211;BME280;50528;48.514;14.394;2023-04-01T03:00:13;92531.98;;;6.77;80.32
64211;BME280;50528;48.514;14.394;2023-04-01T03:00:46;92523.06;;;6.79;80.25
64211;BME280;50528;48.514;14.394;2023-04-01T03:01:21;92526.09;;;6.77;80.20
64211;BME280;50528;48.514;14.394;2023-04-01T03:01:55;92530.11;;;6.78;80.08
64211;BME280;50528;48.514;14.394;2023-04-01T03:02:28;92526.36;;;6.81;79.98
64211;BME280;50528;48.514;14.394;2023-04-01T03:03:02;92529.58;;;6.75;80.06
64211;BME280;50528;48.514;14.394;2023-04-01T03:03:37;92534.55;;;6.79;80.10
64211;BME280;50528;48.514;14.394;2023-04-01T03:04:11;92532.67;;;6.79;79.93
64211;BME280;50528;48.514;14.394;2023-04-01T03:04:45;92525.39;;;6.74;80.04
64211;BME280;50528;48.514;14.394;2023-04-01T03:05:19;92532.33;;;6.73;80.16
64211;BME280;50528;48.514;14.394;2023-04-01T03:05:53;92523.58;;;6.75;80.27
64211;BME280;50528;48.514;14.394;2023-04-01T03:06:29;92526.29;;;6.75;80.20
64211;BME280;50528;48.514;14.394;2023-04-01T03:07:03;92526.71;;;6.78;80.04
64211;BME280;50528;48.514;14.394;2023-04-01T03:07:37;92530.66;;;6.73;80.26
64211;BME280;50528;48.514;14.394;2023-04-01T03:08:10;92532.06;;;6.81;80.01
64211;BME280;50528;48.514;14.394;2023-04-01T03:08:46;92525.33;;;6.70;80.04
64211;BME280;50528;48.514;14.394;2023-04-01T03:09:20;92529.75;;;6.76;80.04
64211;BME280;50528;48.514;14.394;2023-04-01T03:09:53;92531.34;;;6.72;79.96
64211;BME280;50528;48.514;14.394;2023-04-01T03:10:27;92528.39;;;6.65;80.18
64211;BME280;50528;48.514;14.394;2023-04-01T03:11:00;92527.70;;;6.65;80.35
64211;BME280;50528;48.514;14.394;2023-04-01T03:11:35;92529.12;;;6.66;80.30
64211;BME280;50528;48.514;14.394;2023-04-01T03:12:09;92532.34;;;6.63;80.45
64211;BME280;50528;48.514;14.394;2023-04-01T03:12:49;92532.33;;;6.61;80.52
64211;BME280;50528;48.514;14.394;2023-04-01T03:13:23;92536.29;;;6.59;80.57
64211;BME280;50528;48.514;14.394;2023-04-01T03:13:56;92536.60;;;6.57;80.75
64211;BME280;50528;48.514;14.394;2023-04-01T03:14:30;92533.36;;;6.57;80.82
64211;BME280;50528;48.514;14.394;2023-04-01T03:15:04;92526.89;;;6.56;80.88
64211;BME280;50528;48.514;14.394;2023-04-01T03:15:44;92531.33;;;6.57;80.95
64211;BME280;50528;48.514;14.394;2023-04-01T03:16:18;92539.78;;;6.57;81.02
64211;BME280;50528;48.514;14.394;2023-04-01T03:16:51;92534.04;;;6.58;81.08
64211;BME280;50528;48.514;14.394;2023-04-01T03:17:25;92535.31;;;6.63;80.98
64211;BME280;50528;48.514;14.394;2023-04-01T03:17:59;92535.73;;;6.61;81.03
64211;BME280;50528;48.514;14.394;2023-04-01T03:18:33;92533.42;;;6.62;81.00
64211;BME280;50528;48.514;14.394;2023-04-01T03:19:07;92531.42;;;6.65;81.07
64211;BME280;50528;48.514;14.394;2023-04-01T03:19:41;92539.38;;;6.71;80.83
64211;BME280;50528;48.514;14.394;2023-04-01T03:20:15;92537.02;;;6.68;80.85
64211;BME280;50528;48.514;14.394;2023-04-01T03:20:49;92542.02;;;6.67;80.95
64211;BME280;50528;48.514;14.394;2023-04-01T03:21:24;92540.46;;;6.70;81.01
64211;BME280;50528;48.514;14.394;2023-04-01T03:21:57;92540.70;;;6.74;80.66
64211;BME280;50528;48.514;14.394;2023-04-01T03:22:31;92539.73;;;6.69;80.85
64211;BME280;50528;48.514;14.394;2023-04-01T03:23:05;92538.21;;;6.66;80.89
64211;BME280;50528;48.514;14.394;2023-04-01T03:23:38;92538.02;;;6.69;80.95
64211;BME280;50528;48.514;14.394;2023-04-01T03:24:12;92538.45;;;6.74;80.76
64211;BME280;50528;48.514;14.394;2023-04-01T03:24:46;92538.08;;;6.70;80.91
64211;BME280;50528;48.514;14.394;2023-04-01T03:25:20;92536.71;;;6.70;80.87
64211;BME280;50528;48.514;14.394;2023-04-01T03:25:53;92535.34;;;6.67;80.98
64211;BME280;50528;48.514;14.394;2023-04-01T03:26:27;92533.17;;;6.61;81.10
64211;BME280;50528;48.514;14.394;2023-04-01T03:27:01;92535.13;;;6.64;81.25
64211;BME280;50528;48.514;14.394;2023-04-01T03:27:35;92533.71;;;6.63;81.31
64211;BME280;50528;48.514;14.394;2023-04-01T03:28:09;92537.98;;;6.64;81.39
64211;BME280;50528;48.514;14.394;2023-04-01T03:28:43;92543.95;;;6.67;81.44
64211;BME280;50528;48.514;14.394;2023-04-01T03:29:17;92544.06;;;6.69;81.40
64211;BME280;50528;48.514;14.394;2023-04-01T03:29:51;92539.66;;;6.65;81.39
64211;BME280;50528;48.514;14.394;2023-04-01T03:30:25;92543.00;;;6.64;81.46
64211;BME280;50528;48.514;14.394;2023-04-01T03:30:59;92538.44;;;6.61;81.63
64211;BME280;50528;48.514;14.394;2023-04-01T03:31:34;92543.53;;;6.65;81.78
64211;BME280;50528;48.514;14.394;2023-04-01T03:32:07;92543.79;;;6.65;81.73
64211;BME280;50528;48.514;14.394;2023-04-01T03:32:41;92545.73;;;6.64;81.79